sensor_id;sensor_type;location;lat;lon;timestamp;pressure;altitude;pressure_sealevel;temperature
19282;BMP180;9774;52.034;5.342;2023-07-30T00:00:00;100718.00;;;22.10
19282;BMP180;9774;52.034;5.342;2023-07-30T00:02:28;100720.00;;;22.10
19282;BMP180;9774;52.034;5.342;2023-07-30T00:04:55;100725.00;;;22.10
19282;BMP180;9774;52.034;5.342;2023-07-30T00:07:23;100729.00;;;22.00
19282;BMP180;9774;52.034;5.342;2023-07-30T00:09:51;100727.00;;;22.00
19282;BMP180;9774;52.034;5.342;2023-07-30T00:12:18;100724.00;;;22.00
19282;BMP180;9774;52.034;5.342;2023-07-30T00:14:45;100731.00;;;22.00
19282;BMP180;9774;52.034;5.342;2023-07-30T00:17:12;100731.00;;;22.00
19282;BMP180;9774;52.034;5.342;2023-07-30T00:19:40;100731.00;;;22.00
19282;BMP180;9774;52.034;5.342;2023-07-30T00:22:07;100728.00;;;22.00
19282;BMP180;9774;52.034;5.342;2023-07-30T00:24:35;100732.00;;;22.00
19282;BMP180;9774;52.034;5.342;2023-07-30T00:27:03;100731.00;;;22.00
19282;BMP180;9774;52.034;5.342;2023-07-30T00:29:30;100733.00;;;22.00
19282;BMP180;9774;52.034;5.342;2023-07-30T00:31:58;100730.00;;;22.00
19282;BMP180;9774;52.034;5.342;2023-07-30T00:34:25;100729.00;;;21.90
19282;BMP180;9774;52.034;5.342;2023-07-30T00:36:52;100735.00;;;21.90
19282;BMP180;9774;52.034;5.342;2023-07-30T00:39:19;100732.00;;;21.90
19282;BMP180;9774;52.034;5.342;2023-07-30T00:41:48;100731.00;;;21.90
19282;BMP180;9774;52.034;5.342;2023-07-30T00:44:16;100734.00;;;21.90
19282;BMP180;9774;52.034;5.342;2023-07-30T00:46:43;100729.00;;;21.90
19282;BMP180;9774;52.034;5.342;2023-07-30T00:49:11;100723.00;;;21.90
19282;BMP180;9774;52.034;5.342;2023-07-30T00:51:38;100729.00;;;21.90
19282;BMP180;9774;52.034;5.342;2023-07-30T00:54:07;100728.00;;;21.90
19282;BMP180;9774;52.034;5.342;2023-07-30T00:56:35;100729.00;;;21.90
19282;BMP180;9774;52.034;5.342;2023-07-30T00:59:04;100720.00;;;21.80
19282;BMP180;9774;52.034;5.342;2023-07-30T01:01:34;100725.00;;;21.80
19282;BMP180;9774;52.034;5.342;2023-07-30T01:04:02;100729.00;;;21.80
19282;BMP180;9774;52.034;5.342;2023-07-30T01:06:30;100732.00;;;21.80
19282;BMP180;9774;52.034;5.342;2023-07-30T01:08:57;100735.00;;;21.80
19282;BMP180;9774;52.034;5.342;2023-07-30T01:11:25;100743.00;;;21.80
19282;BMP180;9774;52.034;5.342;2023-07-30T01:13:53;100736.00;;;21.80
19282;BMP180;9774;52.034;5.342;2023-07-30T01:16:22;100745.00;;;21.70
19282;BMP180;9774;52.034;5.342;2023-07-30T01:18:50;100741.00;;;21.80
19282;BMP180;9774;52.034;5.342;2023-07-30T01:21:18;100753.00;;;21.70
19282;BMP180;9774;52.034;5.342;2023-07-30T01:23:45;100753.00;;;21.70
19282;BMP180;9774;52.034;5.342;2023-07-30T01:26:15;100751.00;;;21.70
19282;BMP180;9774;52.034;5.342;2023-07-30T01:28:48;100754.00;;;21.70
19282;BMP180;9774;52.034;5.342;2023-07-30T01:31:16;100750.00;;;21.70
19282;BMP180;9774;52.034;5.342;2023-07-30T01:33:48;100753.00;;;21.70
19282;BMP180;9774;52.034;5.342;2023-07-30T01:36:18;100762.00;;;21.70
19282;BMP180;9774;52.034;5.342;2023-07-30T01:38:45;100762.00;;;21.70
19282;BMP180;9774;52.034;5.342;2023-07-30T01:41:14;100757.00;;;21.70
19282;BMP180;9774;52.034;5.342;2023-07-30T01:43:41;100757.00;;;21.70
19282;BMP180;9774;52.034;5.342;2023-07-30T01:46:08;100751.00;;;21.70
19282;BMP180;9774;52.034;5.342;2023-07-30T01:48:35;100750.00;;;21.70
19282;BMP180;9774;52.034;5.342;2023-07-30T01:51:03;100748.00;;;21.70
19282;BMP180;9774;52.034;5.342;2023-07-30T01:53:31;100756.00;;;21.70
19282;BMP180;9774;52.034;5.342;2023-07-30T01:55:58;100761.00;;;21.70
19282;BMP180;9774;52.034;5.342;2023-07-30T01:58:26;100745.00;;;21.70
19282;BMP180;9774;52.034;5.342;2023-07-30T02:00:53;100760.00;;;21.70
19282;BMP180;9774;52.034;5.342;2023-07-30T02:03:20;100757.00;;;21.70
19282;BMP180;9774;52.034;5.342;2023-07-30T02:05:47;100760.00;;;21.70
19282;BMP180;9774;52.034;5.342;2023-07-30T02:08:15;100756.00;;;21.70
19282;BMP180;9774;52.034;5.342;2023-07-30T02:10:44;100761.00;;;21.70
19282;BMP180;9774;52.034;5.342;2023-07-30T02:13:11;100754.00;;;21.70
19282;BMP180;9774;52.034;5.342;2023-07-30T02:15:40;100755.00;;;21.70
19282;BMP180;9774;52.034;5.342;2023-07-30T02:18:08;100754.00;;;21.70
19282;BMP180;9774;52.034;5.342;2023-07-30T02:20:36;100752.00;;;21.70
19282;BMP180;9774;52.034;5.342;2023-07-30T02:23:03;100759.00;;;21.80
19282;BMP180;9774;52.034;5.342;2023-07-30T02:25:30;100759.00;;;21.70
19282;BMP180;9774;52.034;5.342;2023-07-30T02:28:00;100760.00;;;21.70
19282;BMP180;9774;52.034;5.342;2023-07-30T02:30:27;100756.00;;;21.70
19282;BMP180;9774;52.034;5.342;2023-07-30T02:32:55;100752.00;;;21.70
19282;BMP180;9774;52.034;5.342;2023-07-30T02:35:22;100754.00;;;21.80
19282;BMP180;9774;52.034;5.342;2023-07-30T02:37:49;100749.00;;;21.70
19282;BMP180;9774;52.034;5.342;2023-07-30T02:40:16;100747.00;;;21.80
19282;BMP180;9774;52.034;5.342;2023-07-30T02:42:44;100739.00;;;21.70
19282;BMP180;9774;52.034;5.342;2023-07-30T02:45:12;100741.00;;;21.70
19282;BMP180;9774;52.034;5.342;2023-07-30T02:47:40;100736.00;;;21.80
19282;BMP180;9774;52.034;5.342;2023-07-30T02:50:07;100745.00;;;21.80
19282;BMP180;9774;52.034;5.342;2023-07-30T02:52:35;100735.00;;;21.80
19282;BMP180;9774;52.034;5.342;2023-07-30T02:55:02;100735.00;;;21.80
19282;BMP180;9774;52.034;5.342;2023-07-30T02:57:30;100739.00;;;21.80
19282;BMP180;9774;52.034;5.342;2023-07-30T02:59:57;100750.00;;;21.80
19282;BMP180;9774;52.034;5.342;2023-07-30T03:02:25;100733.00;;;21.70
19282;BMP180;9774;52.034;5.342;2023-07-30T03:04:53;100739.00;;;21.80
19282;BMP180;9774;52.034;5.342;2023-07-30T03:07:20;100729.00;;;21.80
19282;BMP180;9774;52.034;5.342;2023-07-30T03:09:48;100737.00;;;21.70
19282;BMP180;9774;52.034;5.342;2023-07-30T03:12:15;100733.00;;;21.70
19282;BMP180;9774;52.034;5.342;2023-07-30T03:14:42;100740.00;;;21.70
19282;BMP180;9774;52.034;5.342;2023-07-30T03:17:10;100740.00;;;21.70
19282;BMP180;9774;52.034;5.342;2023-07-30T03:19:38;100741.00;;;21.70
19282;BMP180;9774;52.034;5.342;2023-07-30T03:22:06;100740.00;;;21.70
19282;BMP180;9774;52.034;5.342;2023-07-30T03:24:33;100738.00;;;21.70
19282;BMP180;9774;52.034;5.342;2023-07-30T03:27:00;100741.00;;;21.70
19282;BMP180;9774;52.034;5.342;2023-07-30T03:29:27;100738.00;;;21.70
19282;BMP180;9774;52.034;5.342;2023-07-30T03:31:55;100739.00;;;21.70
19282;BMP180;9774;52.034;5.342;2023-07-30T03:34:22;100745.00;;;21.70
19282;BMP180;9774;52.034;5.342;2023-07-30T03:36:50;100755.00;;;21.70
19282;BMP180;9774;52.034;5.342;2023-07-30T03:39:18;100750.00;;;21.70
19282;BMP180;9774;52.034;5.342;2023-07-30T03:41:45;100749.00;;;21.70
19282;BMP180;9774;52.034;5.342;2023-07-30T03:44:12;100755.00;;;21.70
19282;BMP180;9774;52.034;5.342;2023-07-30T03:46:39;100745.00;;;21.70
19282;BMP180;9774;52.034;5.342;2023-07-30T03:49:06;100753.00;;;21.70
19282;BMP180;9774;52.034;5.342;2023-07-30T03:51:34;100758.00;;;21.70
19282;BMP180;9774;52.034;5.342;2023-07-30T03:54:03;100760.00;;;21.70
19282;BMP180;9774;52.034;5.342;2023-07-30T03:56:30;100760.00;;;21.70
19282;BMP180;9774;52.034;5.342;2023-07-30T03:58:57;100765.00;;;21.70
19282;BMP180;9774;52.034;5.342;2023-07-30T04:01:25;100758.00;;;21.70
19282;BMP180;9774;52.034;5.342;2023-07-30T04:03:52;100752.00;;;21.70
19282;BMP180;9774;52.034;5.342;2023-07-30T04:06:19;100751.00;;;21.70
19282;BMP180;9774;52.034;5.342;2023-07-30T04:08:46;100745.00;;;21.70
19282;BMP180;9774;52.034;5.342;2023-07-30T04:11:15;100751.00;;;21.70
19282;BMP180;9774;52.034;5.342;2023-07-30T04:13:42;100759.00;;;21.70
19282;BMP180;9774;52.034;5.342;2023-07-30T04:16:10;100755.00;;;21.70
19282;BMP180;9774;52.034;5.342;2023-07-30T04:18:37;100749.00;;;21.80
19282;BMP180;9774;52.034;5.342;2023-07-30T04:21:04;100763.00;;;21.80
19282;BMP180;9774;52.034;5.342;2023-07-30T04:23:31;100764.00;;;21.80
19282;BMP180;9774;52.034;5.342;2023-07-30T04:25:58;100759.00;;;21.80
19282;BMP180;9774;52.034;5.342;2023-07-30T04:28:27;100770.00;;;21.80
19282;BMP180;9774;52.034;5.342;2023-07-30T04:30:54;100769.00;;;21.90
19282;BMP180;9774;52.034;5.342;2023-07-30T04:33:22;100770.00;;;21.90
19282;BMP180;9774;52.034;5.342;2023-07-30T04:35:49;100764.00;;;21.90
19282;BMP180;9774;52.034;5.342;2023-07-30T04:38:16;100770.00;;;21.90
19282;BMP180;9774;52.034;5.342;2023-07-30T04:40:43;100771.00;;;21.90
19282;BMP180;9774;52.034;5.342;2023-07-30T04:43:11;100774.00;;;22.00
19282;BMP180;9774;52.034;5.342;2023-07-30T04:45:39;100770.00;;;22.00
19282;BMP180;9774;52.034;5.342;2023-07-30T04:48:06;100764.00;;;22.00
19282;BMP180;9774;52.034;5.342;2023-07-30T04:50:34;100767.00;;;22.00
19282;BMP180;9774;52.034;5.342;2023-07-30T04:53:01;100778.00;;;22.10
19282;BMP180;9774;52.034;5.342;2023-07-30T04:55:28;100779.00;;;22.10
19282;BMP180;9774;52.034;5.342;2023-07-30T04:57:55;100775.00;;;22.10
19282;BMP180;9774;52.034;5.342;2023-07-30T05:00:23;100781.00;;;22.10
19282;BMP180;9774;52.034;5.342;2023-07-30T05:02:51;100780.00;;;22.10
19282;BMP180;9774;52.034;5.342;2023-07-30T05:05:18;100781.00;;;22.20
19282;BMP180;9774;52.034;5.342;2023-07-30T05:07:46;100779.00;;;22.20
19282;BMP180;9774;52.034;5.342;2023-07-30T05:10:13;100781.00;;;22.20
19282;BMP180;9774;52.034;5.342;2023-07-30T05:12:42;100783.00;;;22.30
19282;BMP180;9774;52.034;5.342;2023-07-30T05:15:09;100789.00;;;22.30
19282;BMP180;9774;52.034;5.342;2023-07-30T05:17:36;100793.00;;;22.30
19282;BMP180;9774;52.034;5.342;2023-07-30T05:20:07;100788.00;;;22.30
19282;BMP180;9774;52.034;5.342;2023-07-30T05:22:34;100789.00;;;22.40
19282;BMP180;9774;52.034;5.342;2023-07-30T05:25:01;100788.00;;;22.40
19282;BMP180;9774;52.034;5.342;2023-07-30T05:27:29;100794.00;;;22.40
19282;BMP180;9774;52.034;5.342;2023-07-30T05:29:57;100795.00;;;22.50
19282;BMP180;9774;52.034;5.342;2023-07-30T05:32:26;100797.00;;;22.50
19282;BMP180;9774;52.034;5.342;2023-07-30T05:34:53;100787.00;;;22.50
19282;BMP180;9774;52.034;5.342;2023-07-30T05:37:21;100794.00;;;22.50
19282;BMP180;9774;52.034;5.342;2023-07-30T05:39:49;100797.00;;;22.50
19282;BMP180;9774;52.034;5.342;2023-07-30T05:42:16;100797.00;;;22.50
19282;BMP180;9774;52.034;5.342;2023-07-30T05:44:43;100799.00;;;22.50
19282;BMP180;9774;52.034;5.342;2023-07-30T05:47:10;100800.00;;;22.50
19282;BMP180;9774;52.034;5.342;2023-07-30T05:49:38;100791.00;;;22.60
19282;BMP180;9774;52.034;5.342;2023-07-30T05:52:06;100792.00;;;22.60
19282;BMP180;9774;52.034;5.342;2023-07-30T05:54:34;100795.00;;;22.60
19282;BMP180;9774;52.034;5.342;2023-07-30T05:57:02;100793.00;;;22.60
19282;BMP180;9774;52.034;5.342;2023-07-30T05:59:29;100799.00;;;22.60
19282;BMP180;9774;52.034;5.342;2023-07-30T06:01:57;100792.00;;;22.60
19282;BMP180;9774;52.034;5.342;2023-07-30T06:04:25;100791.00;;;22.60
19282;BMP180;9774;52.034;5.342;2023-07-30T06:06:52;100800.00;;;22.60
19282;BMP180;9774;52.034;5.342;2023-07-30T06:09:19;100803.00;;;22.70
19282;BMP180;9774;52.034;5.342;2023-07-30T06:11:48;100798.00;;;22.70
19282;BMP180;9774;52.034;5.342;2023-07-30T06:14:15;100798.00;;;22.70
19282;BMP180;9774;52.034;5.342;2023-07-30T06:16:42;100801.00;;;22.70
19282;BMP180;9774;52.034;5.342;2023-07-30T06:19:10;100798.00;;;22.70
19282;BMP180;9774;52.034;5.342;2023-07-30T06:21:37;100799.00;;;22.70
19282;BMP180;9774;52.034;5.342;2023-07-30T06:24:05;100797.00;;;22.80
19282;BMP180;9774;52.034;5.342;2023-07-30T06:26:32;100800.00;;;22.80
19282;BMP180;9774;52.034;5.342;2023-07-30T06:29:01;100802.00;;;22.80
19282;BMP180;9774;52.034;5.342;2023-07-30T06:31:28;100800.00;;;22.80
19282;BMP180;9774;52.034;5.342;2023-07-30T06:33:56;100799.00;;;22.80
19282;BMP180;9774;52.034;5.342;2023-07-30T06:36:23;100811.00;;;22.90
19282;BMP180;9774;52.034;5.342;2023-07-30T06:38:50;100803.00;;;22.90
19282;BMP180;9774;52.034;5.342;2023-07-30T06:41:17;100797.00;;;22.90
19282;BMP180;9774;52.034;5.342;2023-07-30T06:43:45;100798.00;;;22.90
19282;BMP180;9774;52.034;5.342;2023-07-30T06:46:14;100799.00;;;22.90
19282;BMP180;9774;52.034;5.342;2023-07-30T06:48:41;100791.00;;;23.00
19282;BMP180;9774;52.034;5.342;2023-07-30T06:51:10;100803.00;;;22.90
19282;BMP180;9774;52.034;5.342;2023-07-30T06:53:38;100795.00;;;23.00
19282;BMP180;9774;52.034;5.342;2023-07-30T06:56:06;100794.00;;;23.00
19282;BMP180;9774;52.034;5.342;2023-07-30T06:58:33;100797.00;;;23.00
19282;BMP180;9774;52.034;5.342;2023-07-30T07:01:00;100801.00;;;23.10
19282;BMP180;9774;52.034;5.342;2023-07-30T07:03:29;100799.00;;;23.10
19282;BMP180;9774;52.034;5.342;2023-07-30T07:05:57;100798.00;;;23.10
19282;BMP180;9774;52.034;5.342;2023-07-30T07:08:24;100797.00;;;23.10
19282;BMP180;9774;52.034;5.342;2023-07-30T07:10:53;100808.00;;;23.10
19282;BMP180;9774;52.034;5.342;2023-07-30T07:13:20;100812.00;;;23.10
19282;BMP180;9774;52.034;5.342;2023-07-30T07:15:48;100811.00;;;23.10
19282;BMP180;9774;52.034;5.342;2023-07-30T07:18:15;100812.00;;;23.10
19282;BMP180;9774;52.034;5.342;2023-07-30T07:20:43;100820.00;;;23.10
19282;BMP180;9774;52.034;5.342;2023-07-30T07:23:11;100830.00;;;23.10
19282;BMP180;9774;52.034;5.342;2023-07-30T07:25:38;100817.00;;;23.10
19282;BMP180;9774;52.034;5.342;2023-07-30T07:28:05;100822.00;;;23.10
19282;BMP180;9774;52.034;5.342;2023-07-30T07:30:35;100821.00;;;23.10
19282;BMP180;9774;52.034;5.342;2023-07-30T07:33:02;100820.00;;;23.10
19282;BMP180;9774;52.034;5.342;2023-07-30T07:35:31;100828.00;;;23.10
19282;BMP180;9774;52.034;5.342;2023-07-30T07:38:00;100823.00;;;23.10
19282;BMP180;9774;52.034;5.342;2023-07-30T07:40:27;100824.00;;;23.20
19282;BMP180;9774;52.034;5.342;2023-07-30T07:42:55;100826.00;;;23.20
19282;BMP180;9774;52.034;5.342;2023-07-30T07:45:22;100817.00;;;23.20
19282;BMP180;9774;52.034;5.342;2023-07-30T07:47:50;100809.00;;;23.20
19282;BMP180;9774;52.034;5.342;2023-07-30T07:50:17;100812.00;;;23.30
19282;BMP180;9774;52.034;5.342;2023-07-30T07:52:44;100820.00;;;23.30
19282;BMP180;9774;52.034;5.342;2023-07-30T07:55:13;100815.00;;;23.30
19282;BMP180;9774;52.034;5.342;2023-07-30T07:57:40;100813.00;;;23.30
19282;BMP180;9774;52.034;5.342;2023-07-30T08:00:08;100823.00;;;23.30
19282;BMP180;9774;52.034;5.342;2023-07-30T08:02:36;100821.00;;;23.40
19282;BMP180;9774;52.034;5.342;2023-07-30T08:05:04;100819.00;;;23.40
19282;BMP180;9774;52.034;5.342;2023-07-30T08:07:31;100812.00;;;23.50
19282;BMP180;9774;52.034;5.342;2023-07-30T08:09:58;100808.00;;;23.60
19282;BMP180;9774;52.034;5.342;2023-07-30T08:12:27;100803.00;;;23.70
19282;BMP180;9774;52.034;5.342;2023-07-30T08:14:54;100817.00;;;23.80
19282;BMP180;9774;52.034;5.342;2023-07-30T08:17:22;100829.00;;;23.90
19282;BMP180;9774;52.034;5.342;2023-07-30T08:19:49;100828.00;;;24.00
19282;BMP180;9774;52.034;5.342;2023-07-30T08:22:16;100833.00;;;24.10
19282;BMP180;9774;52.034;5.342;2023-07-30T08:24:44;100819.00;;;24.10
19282;BMP180;9774;52.034;5.342;2023-07-30T08:27:11;100819.00;;;24.10
19282;BMP180;9774;52.034;5.342;2023-07-30T08:29:40;100822.00;;;24.10
19282;BMP180;9774;52.034;5.342;2023-07-30T08:32:07;100816.00;;;24.20
19282;BMP180;9774;52.034;5.342;2023-07-30T08:34:34;100827.00;;;24.30
19282;BMP180;9774;52.034;5.342;2023-07-30T08:37:02;100829.00;;;24.40
19282;BMP180;9774;52.034;5.342;2023-07-30T08:39:29;100834.00;;;24.40
19282;BMP180;9774;52.034;5.342;2023-07-30T08:41:56;100829.00;;;24.50
19282;BMP180;9774;52.034;5.342;2023-07-30T08:44:24;100845.00;;;24.60
19282;BMP180;9774;52.034;5.342;2023-07-30T08:46:53;100812.00;;;24.50
19282;BMP180;9774;52.034;5.342;2023-07-30T08:49:21;100821.00;;;24.60
19282;BMP180;9774;52.034;5.342;2023-07-30T08:51:51;100838.00;;;24.60
19282;BMP180;9774;52.034;5.342;2023-07-30T08:54:21;100831.00;;;24.50
19282;BMP180;9774;52.034;5.342;2023-07-30T08:56:49;100818.00;;;24.50
19282;BMP180;9774;52.034;5.342;2023-07-30T08:59:18;100834.00;;;24.50
19282;BMP180;9774;52.034;5.342;2023-07-30T09:01:47;100828.00;;;24.50
19282;BMP180;9774;52.034;5.342;2023-07-30T09:04:18;100845.00;;;24.60
19282;BMP180;9774;52.034;5.342;2023-07-30T09:06:48;100836.00;;;24.60
19282;BMP180;9774;52.034;5.342;2023-07-30T09:09:16;100846.00;;;24.70
19282;BMP180;9774;52.034;5.342;2023-07-30T09:11:43;100837.00;;;24.70
19282;BMP180;9774;52.034;5.342;2023-07-30T09:14:10;100847.00;;;24.80
19282;BMP180;9774;52.034;5.342;2023-07-30T09:16:38;100849.00;;;24.80
19282;BMP180;9774;52.034;5.342;2023-07-30T09:19:06;100845.00;;;24.80
19282;BMP180;9774;52.034;5.342;2023-07-30T09:21:35;100848.00;;;24.80
19282;BMP180;9774;52.034;5.342;2023-07-30T09:24:04;100855.00;;;24.90
19282;BMP180;9774;52.034;5.342;2023-07-30T09:26:41;100861.00;;;24.80
19282;BMP180;9774;52.034;5.342;2023-07-30T09:29:10;100851.00;;;24.90
19282;BMP180;9774;52.034;5.342;2023-07-30T09:31:51;100859.00;;;24.80
19282;BMP180;9774;52.034;5.342;2023-07-30T09:34:21;100865.00;;;24.90
19282;BMP180;9774;52.034;5.342;2023-07-30T09:36:52;100868.00;;;24.90
19282;BMP180;9774;52.034;5.342;2023-07-30T09:39:21;100870.00;;;24.90
19282;BMP180;9774;52.034;5.342;2023-07-30T09:41:50;100874.00;;;24.90
19282;BMP180;9774;52.034;5.342;2023-07-30T09:44:18;100876.00;;;24.90
19282;BMP180;9774;52.034;5.342;2023-07-30T09:46:47;100865.00;;;24.90
19282;BMP180;9774;52.034;5.342;2023-07-30T09:49:14;100874.00;;;24.90
19282;BMP180;9774;52.034;5.342;2023-07-30T09:51:42;100865.00;;;24.90
19282;BMP180;9774;52.034;5.342;2023-07-30T09:54:12;100869.00;;;25.00
19282;BMP180;9774;52.034;5.342;2023-07-30T09:56:41;100877.00;;;25.20
19282;BMP180;9774;52.034;5.342;2023-07-30T09:59:09;100876.00;;;25.30
19282;BMP180;9774;52.034;5.342;2023-07-30T10:01:41;100879.00;;;25.30
19282;BMP180;9774;52.034;5.342;2023-07-30T10:04:10;100887.00;;;25.40
19282;BMP180;9774;52.034;5.342;2023-07-30T10:06:39;100887.00;;;25.30
19282;BMP180;9774;52.034;5.342;2023-07-30T10:09:10;100892.00;;;25.40
19282;BMP180;9774;52.034;5.342;2023-07-30T10:11:40;100892.00;;;25.40
19282;BMP180;9774;52.034;5.342;2023-07-30T10:14:09;100887.00;;;25.50
19282;BMP180;9774;52.034;5.342;2023-07-30T10:16:36;100894.00;;;25.50
19282;BMP180;9774;52.034;5.342;2023-07-30T10:19:03;100891.00;;;25.60
19282;BMP180;9774;52.034;5.342;2023-07-30T10:21:33;100892.00;;;25.60
19282;BMP180;9774;52.034;5.342;2023-07-30T10:24:01;100895.00;;;25.60
19282;BMP180;9774;52.034;5.342;2023-07-30T10:26:32;100895.00;;;25.60
19282;BMP180;9774;52.034;5.342;2023-07-30T10:29:13;100900.00;;;25.60
19282;BMP180;9774;52.034;5.342;2023-07-30T10:31:40;100896.00;;;25.80
19282;BMP180;9774;52.034;5.342;2023-07-30T10:34:09;100902.00;;;25.90
19282;BMP180;9774;52.034;5.342;2023-07-30T10:36:42;100901.00;;;25.90
19282;BMP180;9774;52.034;5.342;2023-07-30T10:39:15;100896.00;;;26.10
19282;BMP180;9774;52.034;5.342;2023-07-30T10:41:49;100905.00;;;26.20
19282;BMP180;9774;52.034;5.342;2023-07-30T10:44:23;100900.00;;;26.30
19282;BMP180;9774;52.034;5.342;2023-07-30T10:46:51;100927.00;;;26.40
19282;BMP180;9774;52.034;5.342;2023-07-30T10:49:18;100929.00;;;26.40
19282;BMP180;9774;52.034;5.342;2023-07-30T10:51:45;100923.00;;;26.30
19282;BMP180;9774;52.034;5.342;2023-07-30T10:54:13;100919.00;;;26.40
19282;BMP180;9774;52.034;5.342;2023-07-30T10:56:42;100918.00;;;26.50
19282;BMP180;9774;52.034;5.342;2023-07-30T10:59:13;100917.00;;;26.50
19282;BMP180;9774;52.034;5.342;2023-07-30T11:01:42;100923.00;;;26.50
19282;BMP180;9774;52.034;5.342;2023-07-30T11:04:10;100924.00;;;26.60
19282;BMP180;9774;52.034;5.342;2023-07-30T11:06:38;100929.00;;;26.60
19282;BMP180;9774;52.034;5.342;2023-07-30T11:09:05;100916.00;;;26.60
19282;BMP180;9774;52.034;5.342;2023-07-30T11:11:32;100926.00;;;26.60
19282;BMP180;9774;52.034;5.342;2023-07-30T11:14:00;100926.00;;;26.60
19282;BMP180;9774;52.034;5.342;2023-07-30T11:16:28;100933.00;;;26.60
19282;BMP180;9774;52.034;5.342;2023-07-30T11:18:56;100930.00;;;26.60
19282;BMP180;9774;52.034;5.342;2023-07-30T11:21:23;100926.00;;;26.60
19282;BMP180;9774;52.034;5.342;2023-07-30T11:23:51;100933.00;;;26.60
19282;BMP180;9774;52.034;5.342;2023-07-30T11:26:19;100930.00;;;26.60
19282;BMP180;9774;52.034;5.342;2023-07-30T11:28:47;100934.00;;;26.60
19282;BMP180;9774;52.034;5.342;2023-07-30T11:31:16;100943.00;;;26.60
19282;BMP180;9774;52.034;5.342;2023-07-30T11:33:47;100944.00;;;26.50
19282;BMP180;9774;52.034;5.342;2023-07-30T11:36:16;100951.00;;;26.50
19282;BMP180;9774;52.034;5.342;2023-07-30T11:38:44;100956.00;;;26.50
19282;BMP180;9774;52.034;5.342;2023-07-30T11:41:12;100951.00;;;26.50
19282;BMP180;9774;52.034;5.342;2023-07-30T11:43:41;100952.00;;;26.50
19282;BMP180;9774;52.034;5.342;2023-07-30T11:46:10;100948.00;;;26.50
19282;BMP180;9774;52.034;5.342;2023-07-30T11:48:39;100958.00;;;26.50
19282;BMP180;9774;52.034;5.342;2023-07-30T11:51:17;100950.00;;;26.50
19282;BMP180;9774;52.034;5.342;2023-07-30T11:53:48;100962.00;;;26.50
19282;BMP180;9774;52.034;5.342;2023-07-30T11:56:18;100962.00;;;26.50
19282;BMP180;9774;52.034;5.342;2023-07-30T11:58:46;100964.00;;;26.50
19282;BMP180;9774;52.034;5.342;2023-07-30T12:01:14;100970.00;;;26.50
19282;BMP180;9774;52.034;5.342;2023-07-30T12:03:41;100963.00;;;26.60
19282;BMP180;9774;52.034;5.342;2023-07-30T12:06:11;100971.00;;;26.60
19282;BMP180;9774;52.034;5.342;2023-07-30T12:08:39;100980.00;;;26.70
19282;BMP180;9774;52.034;5.342;2023-07-30T12:11:08;100973.00;;;26.70
19282;BMP180;9774;52.034;5.342;2023-07-30T12:13:42;100987.00;;;26.70
19282;BMP180;9774;52.034;5.342;2023-07-30T12:16:11;100991.00;;;26.70
19282;BMP180;9774;52.034;5.342;2023-07-30T12:18:39;100985.00;;;26.70
19282;BMP180;9774;52.034;5.342;2023-07-30T12:21:07;100984.00;;;26.60
19282;BMP180;9774;52.034;5.342;2023-07-30T12:23:38;100974.00;;;26.60
19282;BMP180;9774;52.034;5.342;2023-07-30T12:26:05;100980.00;;;26.60
19282;BMP180;9774;52.034;5.342;2023-07-30T12:28:33;100974.00;;;26.60
19282;BMP180;9774;52.034;5.342;2023-07-30T12:31:00;100967.00;;;26.60
19282;BMP180;9774;52.034;5.342;2023-07-30T12:33:28;100970.00;;;26.60
19282;BMP180;9774;52.034;5.342;2023-07-30T12:35:55;100969.00;;;26.60
19282;BMP180;9774;52.034;5.342;2023-07-30T12:38:22;100986.00;;;26.60
19282;BMP180;9774;52.034;5.342;2023-07-30T12:40:51;100977.00;;;26.60
19282;BMP180;9774;52.034;5.342;2023-07-30T12:43:18;100974.00;;;26.60
19282;BMP180;9774;52.034;5.342;2023-07-30T12:45:47;100985.00;;;26.60
19282;BMP180;9774;52.034;5.342;2023-07-30T12:48:14;100979.00;;;26.60
19282;BMP180;9774;52.034;5.342;2023-07-30T12:50:42;100979.00;;;26.60
19282;BMP180;9774;52.034;5.342;2023-07-30T12:53:09;100993.00;;;26.60
19282;BMP180;9774;52.034;5.342;2023-07-30T12:55:36;100994.00;;;26.60
19282;BMP180;9774;52.034;5.342;2023-07-30T12:58:06;100987.00;;;26.60
19282;BMP180;9774;52.034;5.342;2023-07-30T13:00:34;100997.00;;;26.60
19282;BMP180;9774;52.034;5.342;2023-07-30T13:03:02;100986.00;;;26.60
19282;BMP180;9774;52.034;5.342;2023-07-30T13:05:29;100992.00;;;26.60
19282;BMP180;9774;52.034;5.342;2023-07-30T13:07:56;100993.00;;;26.70
19282;BMP180;9774;52.034;5.342;2023-07-30T13:10:23;100997.00;;;26.70
19282;BMP180;9774;52.034;5.342;2023-07-30T13:12:51;100992.00;;;26.80
19282;BMP180;9774;52.034;5.342;2023-07-30T13:15:19;100996.00;;;26.80
19282;BMP180;9774;52.034;5.342;2023-07-30T13:17:47;100995.00;;;26.80
19282;BMP180;9774;52.034;5.342;2023-07-30T13:20:14;100997.00;;;26.80
19282;BMP180;9774;52.034;5.342;2023-07-30T13:22:41;101008.00;;;26.80
19282;BMP180;9774;52.034;5.342;2023-07-30T13:25:08;100994.00;;;26.80
19282;BMP180;9774;52.034;5.342;2023-07-30T13:27:36;100992.00;;;26.80
19282;BMP180;9774;52.034;5.342;2023-07-30T13:30:04;100979.00;;;26.90
19282;BMP180;9774;52.034;5.342;2023-07-30T13:32:32;100985.00;;;26.90
19282;BMP180;9774;52.034;5.342;2023-07-30T13:35:00;100988.00;;;27.00
19282;BMP180;9774;52.034;5.342;2023-07-30T13:37:27;100991.00;;;27.00
19282;BMP180;9774;52.034;5.342;2023-07-30T13:39:55;100982.00;;;27.00
19282;BMP180;9774;52.034;5.342;2023-07-30T13:42:22;100988.00;;;27.00
19282;BMP180;9774;52.034;5.342;2023-07-30T13:44:49;100985.00;;;27.00
19282;BMP180;9774;52.034;5.342;2023-07-30T13:47:16;100998.00;;;27.00
19282;BMP180;9774;52.034;5.342;2023-07-30T13:49:45;100980.00;;;27.00
19282;BMP180;9774;52.034;5.342;2023-07-30T13:52:13;100987.00;;;27.00
19282;BMP180;9774;52.034;5.342;2023-07-30T13:54:40;100990.00;;;27.00
19282;BMP180;9774;52.034;5.342;2023-07-30T13:57:11;100987.00;;;27.00
19282;BMP180;9774;52.034;5.342;2023-07-30T13:59:38;100989.00;;;27.00
19282;BMP180;9774;52.034;5.342;2023-07-30T14:02:10;100988.00;;;27.00
19282;BMP180;9774;52.034;5.342;2023-07-30T14:04:37;100992.00;;;27.00
19282;BMP180;9774;52.034;5.342;2023-07-30T14:07:06;100993.00;;;27.10
19282;BMP180;9774;52.034;5.342;2023-07-30T14:09:33;100986.00;;;27.10
19282;BMP180;9774;52.034;5.342;2023-07-30T14:12:02;100989.00;;;27.20